Time;durP1;ratioP1;P1;durP2;ratioP2;P2;SDS_P1;SDS_P2;PMS_P1;PMS_P2;Temp;Humidity;BMP_temperature;BMP_pressure;BME280_temperature;BME280_humidity;BME280_pressure;Samples;Min_cycle;Max_cycle;Signal;HPM_P1;HPM_P2
2022/03/13 12:58:45;;;;;;;;;5.00;4.00;;;;;10.10;63.52;100530.94;5167109;27;45407;-73
2022/03/13 13:01:20;;;;;;;;;4.00;4.00;;;;;10.26;63.87;100542.31;5111965;27;45427;-71
2022/03/13 13:03:50;;;;;;;;;6.00;6.00;;;;;10.30;63.68;100527.53;5128116;27;45576;-72
2022/03/13 13:06:29;;;;;;;;;8.50;8.50;;;;;10.36;63.61;100510.03;5112326;27;45444;-72
2022/03/13 13:08:56;;;;;;;;;6.75;6.75;;;;;10.40;63.51;100496.06;5111661;27;45435;-70
2022/03/13 13:11:34;;;;;;;;;5.00;5.00;;;;;10.74;63.40;100543.16;5110245;27;45637;-73
2022/03/13 13:14:01;;;;;;;;;7.50;6.00;;;;;10.77;63.46;100532.69;5112001;27;45533;-72
2022/03/13 13:16:29;;;;;;;;;7.25;4.00;;;;;10.81;63.63;100523.06;5117396;27;45447;-71
2022/03/13 13:18:55;;;;;;;;;5.25;5.25;;;;;10.78;63.67;100528.31;5112722;27;45454;-70
2022/03/13 13:21:35;;;;;;;;;8.25;6.25;;;;;10.89;63.91;100539.66;5111804;27;45457;-71
2022/03/13 13:24:17;;;;;;;;;4.75;4.75;;;;;10.85;63.84;100516.97;5111628;27;45294;-70
2022/03/13 13:26:43;;;;;;;;;8.50;6.75;;;;;10.98;63.75;100525.63;5111941;27;45448;-71
2022/03/13 13:29:12;;;;;;;;;7.00;7.00;;;;;10.96;64.12;100512.56;5111523;27;46398;-71
2022/03/13 13:31:38;;;;;;;;;6.75;6.25;;;;;11.14;63.63;100540.44;5130964;27;45388;-70
2022/03/13 13:34:16;;;;;;;;;7.25;5.50;;;;;11.18;63.55;100541.31;5111397;27;45464;-70
2022/03/13 13:36:42;;;;;;;;;8.25;8.00;;;;;11.13;63.50;100535.19;5112147;27;45310;-70
2022/03/13 13:39:08;;;;;;;;;8.25;6.50;;;;;11.16;63.96;100530.81;5111756;27;45954;-70
2022/03/13 13:41:35;;;;;;;;;6.25;5.25;;;;;11.21;64.13;100530.81;5111669;27;45547;-70
2022/03/13 13:44:03;;;;;;;;;3.75;3.75;;;;;11.17;63.58;100519.44;5111555;27;45354;-70
2022/03/13 13:46:32;;;;;;;;;6.75;5.75;;;;;11.27;64.01;100524.66;5110747;27;45510;-71
2022/03/13 13:48:58;;;;;;;;;5.00;5.00;;;;;11.40;63.59;100540.34;5115600;27;45412;-70
2022/03/13 13:51:30;;;;;;;;;4.00;4.00;;;;;11.45;63.65;100537.69;5113852;27;45317;-69
2022/03/13 13:54:13;;;;;;;;;7.00;6.75;;;;;11.42;63.77;100545.59;5111406;27;45446;-69
2022/03/13 13:56:40;;;;;;;;;6.50;6.50;;;;;11.40;63.45;100542.09;5111023;27;45559;-69
2022/03/13 13:59:31;;;;;;;;;6.00;4.75;;;;;11.34;63.60;100545.63;5113542;27;45828;-69
2022/03/13 14:02:03;;;;;;;;;3.75;3.25;;;;;11.33;63.99;100545.63;5110433;27;45809;-69
2022/03/13 14:04:30;;;;;;;;;6.50;6.50;;;;;11.25;63.77;100543.91;5109200;27;46019;-71
2022/03/13 14:06:59;;;;;;;;;5.50;5.50;;;;;11.25;64.30;100548.28;5111458;27;45613;-70
2022/03/13 14:09:25;;;;;;;;;5.50;5.25;;;;;11.04;64.62;100507.28;5099459;27;46384;-72
2022/03/13 14:11:51;;;;;;;;;4.00;4.00;;;;;11.26;64.37;100547.38;5112929;27;45387;-70
2022/03/13 14:14:17;;;;;;;;;7.75;6.50;;;;;11.22;64.13;100528.19;5097333;27;45359;-70
2022/03/13 14:16:45;;;;;;;;;6.75;5.50;;;;;11.20;64.34;100529.94;5113985;27;45888;-69
2022/03/13 14:19:11;;;;;;;;;5.50;4.75;;;;;11.28;64.26;100550.03;5097606;27;46140;-69
2022/03/13 14:21:38;;;;;;;;;5.25;5.25;;;;;11.19;64.49;100530.81;5096496;27;45425;-68
2022/03/13 14:24:04;;;;;;;;;7.50;6.25;;;;;11.27;64.35;100543.00;5097196;27;45345;-70
2022/03/13 14:26:30;;;;;;;;;9.75;7.75;;;;;11.23;64.82;100545.66;5097160;27;45556;-69
2022/03/13 14:28:57;;;;;;;;;5.25;5.25;;;;;11.16;64.75;100540.44;5113490;27;47513;-70
2022/03/13 14:31:23;;;;;;;;;8.25;6.00;;;;;11.21;64.74;100543.91;5096858;27;45761;-70
2022/03/13 14:33:49;;;;;;;;;6.75;5.50;;;;;11.14;64.88;100523.84;5096752;27;45364;-70
2022/03/13 14:36:15;;;;;;;;;8.50;7.00;;;;;11.32;65.04;100552.63;5096954;27;45501;-70
2022/03/13 14:38:47;;;;;;;;;10.50;7.25;;;;;11.24;64.49;100539.53;5096360;27;45380;-70
2022/03/13 14:41:14;;;;;;;;;10.00;6.00;;;;;11.36;65.02;100567.44;5096483;27;45490;-69
2022/03/13 14:43:40;;;;;;;;;6.50;6.00;;;;;11.38;64.68;100570.06;5095274;27;45418;-69
2022/03/13 14:46:09;;;;;;;;;8.00;8.00;;;;;11.35;64.78;100572.72;5095427;27;45550;-69
2022/03/13 14:48:35;;;;;;;;;6.75;6.75;;;;;11.33;64.83;100571.84;5096204;27;45739;-68
2022/03/13 14:51:01;;;;;;;;;10.25;5.50;;;;;11.30;64.98;100572.72;5096250;27;45308;-68
2022/03/13 14:53:27;;;;;;;;;5.50;5.50;;;;;11.28;64.74;100582.34;5096253;27;45409;-69
2022/03/13 14:55:54;;;;;;;;;8.00;6.25;;;;;11.22;64.76;100579.72;5096589;27;46007;-68
2022/03/13 14:58:20;;;;;;;;;6.00;5.50;;;;;11.21;65.19;100580.63;5095963;27;45417;-69
2022/03/13 15:00:46;;;;;;;;;8.25;6.75;;;;;11.16;65.59;100578.00;5096073;27;45340;-68
2022/03/13 15:03:11;;;;;;;;;7.25;5.50;;;;;11.08;65.47;100565.78;5096834;27;45352;-68
2022/03/13 15:05:37;;;;;;;;;8.50;7.25;;;;;11.13;65.91;100585.00;5094951;27;45475;-69
2022/03/13 15:08:03;;;;;;;;;7.50;6.50;;;;;11.14;65.89;100586.75;5096141;27;46003;-69
2022/03/13 15:10:29;;;;;;;;;7.50;6.50;;;;;11.11;66.18;100590.25;5094836;27;45783;-69
2022/03/13 15:12:55;;;;;;;;;7.00;6.50;;;;;11.05;66.45;100585.03;5095981;27;45514;-69
2022/03/13 15:15:22;;;;;;;;;6.50;6.50;;;;;11.06;66.48;100583.25;5095227;27;45906;-69
2022/03/13 15:17:49;;;;;;;;;7.50;5.75;;;;;11.08;66.39;100594.63;5095868;27;45490;-69
2022/03/13 15:20:15;;;;;;;;;7.00;5.25;;;;;11.05;67.21;100585.03;5091527;27;45677;-69
2022/03/13 15:22:41;;;;;;;;;11.50;10.25;;;;;11.04;66.99;100589.41;5079750;27;45421;-69
2022/03/13 15:25:07;;;;;;;;;6.75;6.75;;;;;11.01;67.01;100591.16;5079956;27;45469;-68
2022/03/13 15:27:33;;;;;;;;;7.00;7.00;;;;;10.91;67.27;100578.94;5077545;27;46670;-70
2022/03/13 15:29:59;;;;;;;;;4.00;4.00;;;;;10.98;67.34;100596.41;5073418;28;45629;-70
2022/03/13 15:32:26;;;;;;;;;6.75;5.25;;;;;10.99;67.90;100596.41;5078106;27;45500;-70
2022/03/13 15:34:51;;;;;;;;;8.25;7.25;;;;;10.94;67.97;100578.94;5075103;27;45563;-69
2022/03/13 15:37:17;;;;;;;;;8.50;6.75;;;;;11.02;67.71;100596.38;5088184;27;46687;-69
2022/03/13 15:39:42;;;;;;;;;6.00;6.00;;;;;10.83;67.66;100573.72;5095651;27;45542;-70
2022/03/13 15:42:08;;;;;;;;;6.75;6.75;;;;;10.83;68.34;100581.59;5111456;27;45424;-70
2022/03/13 15:44:34;;;;;;;;;7.50;6.25;;;;;10.86;67.95;100592.03;5095560;27;45285;-70
2022/03/13 15:47:00;;;;;;;;;5.75;5.75;;;;;10.77;68.31;100592.06;5094267;27;46062;-69
2022/03/13 15:49:26;;;;;;;;;4.00;4.00;;;;;10.82;68.63;100590.34;5109696;27;45506;-70
2022/03/13 15:51:53;;;;;;;;;7.00;5.75;;;;;10.81;68.87;100597.28;5095523;27;45324;-71
2022/03/13 15:54:19;;;;;;;;;5.25;4.50;;;;;10.82;68.77;100608.66;5097223;27;45393;-71
2022/03/13 15:56:45;;;;;;;;;4.00;4.00;;;;;10.83;69.30;100600.78;5095397;27;45606;-68
2022/03/13 15:59:10;;;;;;;;;5.50;5.50;;;;;10.87;69.08;100613.88;5101515;27;45613;-69
2022/03/13 16:01:36;;;;;;;;;3.75;3.75;;;;;10.81;69.05;100601.66;5095323;27;45777;-71
2022/03/13 16:04:02;;;;;;;;;5.50;5.50;;;;;10.85;69.35;100616.50;5092928;27;45558;-69
2022/03/13 16:06:28;;;;;;;;;3.75;3.75;;;;;10.88;69.27;100624.38;5091577;27;45475;-70
2022/03/13 16:08:54;;;;;;;;;7.50;5.75;;;;;10.78;69.24;100620.03;5107741;27;45740;-69
2022/03/13 16:11:21;;;;;;;;;7.00;5.50;;;;;10.72;68.61;100623.50;5097213;27;45983;-72
2022/03/13 16:13:47;;;;;;;;;4.00;4.00;;;;;10.78;69.00;100630.50;5096782;27;45351;-72
2022/03/13 16:16:13;;;;;;;;;4.50;4.00;;;;;10.77;68.11;100650.59;5095588;27;46098;-72
2022/03/13 16:18:39;;;;;;;;;2.50;2.00;;;;;10.75;67.41;100644.47;5094573;27;45511;-70
2022/03/13 16:21:05;;;;;;;;;1.50;1.25;;;;;10.73;66.93;100650.59;5093278;27;45442;-71
2022/03/13 16:23:32;;;;;;;;;2.25;1.75;;;;;10.71;66.76;100641.84;5094427;27;45593;-70
2022/03/13 16:25:59;;;;;;;;;1.50;1.50;;;;;10.53;66.87;100612.16;5094353;27;45818;-72
2022/03/13 16:28:26;;;;;;;;;2.00;1.00;;;;;10.69;66.26;100636.59;5093964;27;46007;-71
2022/03/13 16:30:51;;;;;;;;;4.00;2.75;;;;;10.68;66.19;100634.88;5094300;27;45550;-70
2022/03/13 16:33:17;;;;;;;;;2.00;2.00;;;;;10.76;66.27;100637.47;5110569;27;45539;-69
2022/03/13 16:35:44;;;;;;;;;1.75;1.75;;;;;10.83;65.69;100658.44;5094488;27;45532;-69
2022/03/13 16:38:10;;;;;;;;;1.00;1.00;;;;;10.60;65.86;100645.31;5094422;27;45431;-70
2022/03/13 16:40:36;;;;;;;;;0.75;0.75;;;;;10.59;66.60;100654.06;5094210;27;45449;-69
2022/03/13 16:43:02;;;;;;;;;2.00;2.00;;;;;10.55;66.17;100643.59;5097028;27;45324;-69
2022/03/13 16:45:30;;;;;;;;;2.50;2.50;;;;;10.58;66.63;100661.91;5097788;27;45459;-71
2022/03/13 16:47:56;;;;;;;;;0.75;0.75;;;;;10.62;66.65;100674.13;5093220;27;45504;-70
2022/03/13 16:50:22;;;;;;;;;1.25;1.25;;;;;10.53;66.58;100669.75;5093301;27;45597;-70
2022/03/13 16:52:48;;;;;;;;;2.50;1.00;;;;;10.56;66.94;100690.72;5109886;27;45438;-68
2022/03/13 16:55:16;;;;;;;;;2.25;1.25;;;;;10.56;66.91;100685.50;5093572;27;45568;-69
2022/03/13 16:57:41;;;;;;;;;1.25;1.00;;;;;10.65;66.95;100704.69;5106403;27;45404;-69
2022/03/13 17:00:07;;;;;;;;;3.50;3.00;;;;;10.42;67.17;100668.00;5088090;27;45564;-68
2022/03/13 17:02:33;;;;;;;;;4.25;2.50;;;;;10.45;66.95;100705.53;5092080;27;45543;-69
2022/03/13 17:04:58;;;;;;;;;2.00;2.00;;;;;10.40;67.25;100704.66;5083000;27;46112;-68
2022/03/13 17:07:24;;;;;;;;;3.50;2.00;;;;;10.11;67.83;100660.94;5081354;27;46502;-67
2022/03/13 17:09:50;;;;;;;;;3.00;2.75;;;;;10.47;67.69;100722.13;5091560;27;45721;-67
2022/03/13 17:12:16;;;;;;;;;0.75;0.75;;;;;10.43;67.92;100711.66;5084076;27;45920;-68
2022/03/13 17:14:42;;;;;;;;;3.00;2.50;;;;;10.54;67.63;100736.13;5086892;27;45572;-67
2022/03/13 17:17:08;;;;;;;;;3.50;3.50;;;;;10.57;67.42;100744.84;5076156;27;45601;-67
2022/03/13 17:19:35;;;;;;;;;7.00;5.00;;;;;10.57;67.59;100747.47;5103598;27;45507;-68
2022/03/13 17:22:02;;;;;;;;;4.50;4.00;;;;;10.55;67.29;100749.19;5078577;27;46031;-68
2022/03/13 17:24:28;;;;;;;;;4.25;3.50;;;;;10.59;67.39;100752.72;5081776;27;45533;-68
2022/03/13 17:26:54;;;;;;;;;3.00;3.00;;;;;10.52;67.40;100749.22;5095008;27;45242;-70
2022/03/13 17:29:22;;;;;;;;;4.50;2.75;;;;;10.55;67.15;100757.06;5096376;27;45642;-69
2022/03/13 17:31:54;;;;;;;;;2.00;2.00;;;;;10.44;67.68;100768.38;5095835;27;45435;-69
2022/03/13 17:34:20;;;;;;;;;5.25;3.00;;;;;10.39;67.76;100776.22;5110855;27;47417;-67
2022/03/13 17:36:46;;;;;;;;;3.00;2.00;;;;;10.18;67.57;100753.44;5094627;27;45349;-69
2022/03/13 17:39:18;;;;;;;;;5.50;3.50;;;;;10.23;68.22;100766.53;5088469;27;45353;-69
2022/03/13 17:41:46;;;;;;;;;4.50;4.00;;;;;10.04;68.25;100748.16;5112103;27;45391;-68
2022/03/13 17:44:11;;;;;;;;;5.25;3.50;;;;;10.19;68.66;100763.91;5097486;27;45435;-68
2022/03/13 17:46:38;;;;;;;;;1.00;1.00;;;;;10.31;68.26;100772.72;5100118;27;45392;-69
2022/03/13 17:49:05;;;;;;;;;3.00;3.00;;;;;10.43;68.38;100792.81;5101589;27;45404;-71
2022/03/13 17:51:34;;;;;;;;;5.00;3.50;;;;;10.44;68.24;100791.94;5103777;27;45475;-70
2022/03/13 17:54:00;;;;;;;;;3.25;3.25;;;;;10.43;68.56;100803.31;5101325;27;45321;-69
2022/03/13 17:56:26;;;;;;;;;5.00;3.00;;;;;10.43;68.63;100805.91;5100135;27;45610;-71
2022/03/13 17:58:51;;;;;;;;;5.50;4.00;;;;;10.33;69.05;100798.03;5103499;27;45257;-69
2022/03/13 18:01:17;;;;;;;;;7.00;6.00;;;;;10.25;69.37;100804.06;5103106;27;45181;-70
2022/03/13 18:03:42;;;;;;;;;7.00;7.00;;;;;10.21;69.84;100812.78;5098292;27;45989;-70
2022/03/13 18:06:08;;;;;;;;;6.75;6.75;;;;;10.03;70.11;100795.22;5084968;27;45778;-70
2022/03/13 18:08:41;;;;;;;;;11.75;8.50;;;;;10.13;69.96;100816.25;5089874;27;45385;-69
2022/03/13 18:11:07;;;;;;;;;8.00;5.50;;;;;10.16;69.91;100820.63;5100756;27;45433;-70
2022/03/13 18:13:32;;;;;;;;;9.25;7.25;;;;;10.10;69.94;100820.56;5095732;27;46134;-68
2022/03/13 18:15:58;;;;;;;;;7.75;7.25;;;;;10.15;70.00;100827.56;5098052;27;45298;-69
2022/03/13 18:18:24;;;;;;;;;5.50;5.50;;;;;10.24;70.08;100837.22;5098223;27;45434;-69
2022/03/13 18:20:49;;;;;;;;;8.50;8.25;;;;;10.26;70.08;100848.56;5098922;27;45504;-69
2022/03/13 18:23:15;;;;;;;;;8.00;6.50;;;;;10.05;69.46;100815.31;5096295;27;46038;-69
2022/03/13 18:25:41;;;;;;;;;10.50;9.50;;;;;10.29;70.08;100858.22;5096638;27;45392;-68
2022/03/13 18:28:09;;;;;;;;;10.25;10.00;;;;;10.22;69.69;100853.78;5093173;27;45503;-69
2022/03/13 18:30:35;;;;;;;;;8.25;8.25;;;;;10.25;69.99;100873.00;5095888;27;45600;-70
2022/03/13 18:33:08;;;;;;;;;7.50;7.50;;;;;10.13;70.57;100859.81;5097740;27;45738;-67
2022/03/13 18:35:34;;;;;;;;;11.50;11.25;;;;;10.27;70.00;100883.47;5093978;27;45842;-68
2022/03/13 18:38:02;;;;;;;;;11.50;9.50;;;;;10.15;69.96;100869.44;5095528;27;45566;-68
2022/03/13 18:40:27;;;;;;;;;11.00;10.25;;;;;10.21;70.29;100881.72;5095187;27;45531;-69
2022/03/13 18:42:53;;;;;;;;;14.00;11.50;;;;;10.25;70.50;100895.66;5095359;27;45906;-69
2022/03/13 18:45:19;;;;;;;;;11.00;10.50;;;;;10.12;70.70;100881.66;5095790;27;45914;-69
2022/03/13 18:47:45;;;;;;;;;10.25;9.50;;;;;10.15;70.64;100908.69;5094893;27;45480;-68
2022/03/13 18:50:11;;;;;;;;;10.25;9.50;;;;;10.09;70.88;100908.69;5095396;27;45792;-68
2022/03/13 18:52:36;;;;;;;;;9.25;9.25;;;;;10.06;71.08;100911.28;5097741;27;45480;-68
2022/03/13 18:55:03;;;;;;;;;13.50;11.25;;;;;10.12;71.00;100916.53;5094817;27;45421;-69
2022/03/13 18:57:28;;;;;;;;;12.00;9.50;;;;;10.12;71.14;100913.91;5094765;27;45320;-68
2022/03/13 18:59:54;;;;;;;;;11.00;11.00;;;;;10.12;70.78;100918.28;5095427;27;45381;-69
2022/03/13 19:02:21;;;;;;;;;14.75;11.75;;;;;10.11;70.85;100919.16;5095546;27;45861;-68
2022/03/13 19:04:48;;;;;;;;;12.75;10.50;;;;;10.16;71.03;100933.16;5094231;27;45429;-69
2022/03/13 19:07:14;;;;;;;;;12.25;11.25;;;;;10.18;70.83;100940.16;5113869;27;45457;-68
2022/03/13 19:09:40;;;;;;;;;15.75;11.00;;;;;10.09;70.65;100937.47;5095757;27;45510;-69
2022/03/13 19:12:08;;;;;;;;;12.50;11.25;;;;;10.21;70.71;100951.50;5100072;27;45692;-68
2022/03/13 19:14:34;;;;;;;;;13.00;11.75;;;;;10.23;70.43;100950.66;5095251;27;45335;-69
2022/03/13 19:17:02;;;;;;;;;9.25;8.50;;;;;10.26;70.24;100953.28;5094664;27;45330;-68
2022/03/13 19:19:29;;;;;;;;;12.50;10.50;;;;;10.26;70.21;100955.03;5094176;27;45775;-70
2022/03/13 19:21:56;;;;;;;;;8.50;8.50;;;;;10.28;70.34;100961.16;5097990;27;46395;-68
2022/03/13 19:24:22;;;;;;;;;9.75;9.00;;;;;10.31;70.24;100962.06;5094673;27;45495;-69
2022/03/13 19:26:48;;;;;;;;;11.50;10.00;;;;;10.28;69.93;100958.53;5094636;27;45364;-68
2022/03/13 19:29:14;;;;;;;;;10.25;10.25;;;;;10.28;69.42;100956.81;5095169;27;45600;-70
2022/03/13 19:31:40;;;;;;;;;9.50;9.50;;;;;10.25;69.46;100963.72;5095175;27;45977;-68
2022/03/13 19:34:05;;;;;;;;;8.00;8.00;;;;;10.23;69.58;100961.13;5094190;27;45781;-68
2022/03/13 19:36:31;;;;;;;;;9.75;9.00;;;;;10.23;69.91;100976.84;5097636;27;45409;-69
2022/03/13 19:38:57;;;;;;;;;11.00;9.50;;;;;10.20;69.80;100979.41;5094785;27;45772;-71
2022/03/13 19:41:24;;;;;;;;;12.00;9.50;;;;;10.20;69.87;100992.50;5093630;27;46373;-68
2022/03/13 19:43:56;;;;;;;;;9.75;9.50;;;;;10.17;70.16;101001.19;5095104;27;45757;-68
2022/03/13 19:46:23;;;;;;;;;10.75;8.50;;;;;10.13;70.13;101006.41;5094550;27;45302;-71
2022/03/13 19:48:49;;;;;;;;;10.25;8.50;;;;;10.00;70.17;100984.50;5091947;27;45401;-69
2022/03/13 19:51:17;;;;;;;;;8.50;8.00;;;;;10.11;70.08;101011.63;5076119;27;45778;-70
2022/03/13 19:53:42;;;;;;;;;9.25;8.75;;;;;10.15;70.12;101017.75;5080151;27;45447;-69
2022/03/13 19:56:08;;;;;;;;;7.25;7.00;;;;;10.09;69.97;101023.84;5076193;27;45433;-70
2022/03/13 19:59:09;;;;;;;;;7.75;7.75;;;;;10.06;70.20;101036.00;5079153;27;45583;-70
2022/03/13 20:01:34;;;;;;;;;8.25;8.25;;;;;10.02;70.20;101037.72;5092142;27;47208;-71
2022/03/13 20:04:04;;;;;;;;;5.75;5.50;;;;;9.94;69.93;101023.69;5083158;27;45566;-70
2022/03/13 20:06:39;;;;;;;;;8.50;8.50;;;;;10.05;69.94;101042.97;5088928;27;45309;-69
2022/03/13 20:09:04;;;;;;;;;7.25;5.50;;;;;10.04;69.92;101040.38;5098889;27;45378;-70
2022/03/13 20:11:30;;;;;;;;;5.50;4.25;;;;;9.80;69.98;101007.88;5107121;27;45434;-70
2022/03/13 20:13:58;;;;;;;;;6.00;5.75;;;;;10.02;69.91;101055.19;5088523;27;45479;-69
2022/03/13 20:16:24;;;;;;;;;10.00;6.50;;;;;10.04;69.78;101061.31;5081395;27;45576;-70
2022/03/13 20:18:50;;;;;;;;;10.25;7.75;;;;;10.04;69.98;101077.00;5083824;27;45485;-69
2022/03/13 20:21:22;;;;;;;;;7.25;7.25;;;;;10.02;69.81;101076.13;5096715;27;48063;-69
2022/03/13 20:23:48;;;;;;;;;8.00;8.00;;;;;9.99;70.13;101082.19;5082545;27;45962;-69
2022/03/13 20:26:15;;;;;;;;;9.75;6.25;;;;;9.91;69.96;101076.84;5080812;27;46209;-69
2022/03/13 20:28:40;;;;;;;;;4.00;4.00;;;;;9.96;69.96;101085.63;5084553;27;45486;-70
2022/03/13 20:31:07;;;;;;;;;8.25;6.75;;;;;10.03;70.05;101096.16;5079798;27;45559;-69
2022/03/13 20:33:35;;;;;;;;;7.00;6.25;;;;;10.06;69.60;101099.72;5076987;27;45602;-71
2022/03/13 20:36:02;;;;;;;;;8.50;6.00;;;;;10.06;69.67;101097.09;5080043;27;45309;-70
2022/03/13 20:38:30;;;;;;;;;8.00;6.00;;;;;10.05;69.53;101097.06;5077790;27;45752;-69
2022/03/13 20:40:58;;;;;;;;;6.25;6.00;;;;;10.08;69.24;101105.81;5076630;27;46289;-70
2022/03/13 20:43:24;;;;;;;;;8.25;8.25;;;;;10.06;69.43;101118.03;5077038;27;45490;-69
2022/03/13 20:45:50;;;;;;;;;7.50;6.75;;;;;10.06;69.09;101118.03;5098207;27;45463;-69
2022/03/13 20:48:17;;;;;;;;;7.25;5.75;;;;;10.01;69.61;101122.31;5093567;27;45940;-69
2022/03/13 20:50:43;;;;;;;;;9.50;7.50;;;;;10.00;69.35;101122.31;5100352;27;47149;-69
2022/03/13 20:53:12;;;;;;;;;10.00;7.00;;;;;10.02;69.35;101131.06;5093754;27;45535;-69
2022/03/13 20:55:37;;;;;;;;;7.00;6.00;;;;;9.82;69.14;101097.69;5097093;27;45423;-67
2022/03/13 20:58:03;;;;;;;;;6.50;6.50;;;;;9.91;69.16;101116.09;5096188;27;45526;-69
2022/03/13 21:00:29;;;;;;;;;6.75;6.75;;;;;10.00;69.26;101141.50;5097199;27;45358;-68
2022/03/13 21:02:54;;;;;;;;;6.00;6.00;;;;;9.97;69.11;101150.19;5095546;27;45519;-70
2022/03/13 21:05:21;;;;;;;;;8.75;6.00;;;;;9.92;69.59;101145.78;5109424;27;45432;-69
2022/03/13 21:07:47;;;;;;;;;7.00;5.50;;;;;9.91;69.44;101164.94;5094207;27;45558;-70
2022/03/13 21:10:14;;;;;;;;;8.25;6.75;;;;;9.80;69.30;101150.84;5093349;27;46198;-70
2022/03/13 21:12:41;;;;;;;;;7.00;6.00;;;;;9.67;69.25;101139.38;5093776;27;45496;-69
2022/03/13 21:15:08;;;;;;;;;7.25;5.50;;;;;9.79;69.25;101159.56;5094327;27;45414;-70
2022/03/13 21:17:34;;;;;;;;;4.50;3.25;;;;;9.85;69.12;101162.28;5092868;27;45746;-69
2022/03/13 21:20:01;;;;;;;;;7.25;7.00;;;;;9.86;69.23;101167.50;5093772;27;46210;-70
2022/03/13 21:22:27;;;;;;;;;15.00;11.00;;;;;9.87;69.27;101168.38;5097287;27;45332;-70
2022/03/13 21:24:52;;;;;;;;;12.75;9.75;;;;;9.81;69.28;101158.72;5097064;27;45666;-68
2022/03/13 21:27:18;;;;;;;;;7.25;6.75;;;;;9.88;69.07;101175.38;5100477;27;45549;-69
2022/03/13 21:29:46;;;;;;;;;14.50;9.25;;;;;9.86;69.11;101177.97;5112413;27;45581;-68
2022/03/13 21:32:13;;;;;;;;;8.50;7.50;;;;;9.82;69.22;101186.63;5097067;27;45376;-69
2022/03/13 21:34:41;;;;;;;;;10.25;6.50;;;;;9.83;69.05;101187.53;5096133;27;45428;-70
2022/03/13 21:37:08;;;;;;;;;7.50;7.00;;;;;9.85;68.98;101185.81;5101602;27;45347;-70
2022/03/13 21:39:34;;;;;;;;;8.00;6.25;;;;;9.82;68.98;101177.91;5097113;27;45733;-69
2022/03/13 21:42:00;;;;;;;;;11.25;8.75;;;;;9.77;68.54;101181.38;5099527;27;45731;-70
2022/03/13 21:44:25;;;;;;;;;8.00;7.00;;;;;9.88;68.88;101206.78;5101862;27;45574;-70
2022/03/13 21:46:51;;;;;;;;;8.75;7.50;;;;;9.89;68.41;101200.69;5101896;27;45652;-69
2022/03/13 21:49:17;;;;;;;;;7.00;7.00;;;;;9.87;68.67;101200.69;5100534;27;45503;-69
2022/03/13 21:51:44;;;;;;;;;12.00;9.50;;;;;9.84;68.82;101205.84;5101407;27;46142;-72
2022/03/13 21:54:13;;;;;;;;;8.00;8.00;;;;;9.69;68.45;101195.22;5100552;27;45410;-71
2022/03/13 21:56:45;;;;;;;;;8.50;6.25;;;;;9.77;68.59;101220.63;5097972;27;45502;-70
2022/03/13 21:59:12;;;;;;;;;8.75;8.00;;;;;9.71;68.84;101219.66;5100994;27;46214;-70
2022/03/13 22:01:38;;;;;;;;;7.00;6.50;;;;;9.68;69.01;101227.44;5101720;27;45455;-71
2022/03/13 22:04:09;;;;;;;;;8.25;7.00;;;;;9.62;69.01;101206.44;5097201;27;45436;-70
2022/03/13 22:06:39;;;;;;;;;7.50;7.50;;;;;9.62;68.94;101209.06;5096456;27;45520;-70
2022/03/13 22:09:12;;;;;;;;;7.50;7.25;;;;;9.61;69.03;101217.75;5097650;27;46451;-70
2022/03/13 22:11:45;;;;;;;;;6.00;6.00;;;;;9.63;68.96;101239.56;5100510;27;45582;-71
2022/03/13 22:14:15;;;;;;;;;7.00;7.00;;;;;9.63;68.90;101247.44;5100398;27;45451;-69
2022/03/13 22:16:45;;;;;;;;;9.50;8.50;;;;;9.58;68.88;101230.78;5098374;27;45562;-70
2022/03/13 22:19:13;;;;;;;;;6.00;6.00;;;;;9.66;69.04;101242.25;5099252;27;46627;-69
2022/03/13 22:21:43;;;;;;;;;7.25;6.50;;;;;9.51;69.22;101221.97;5096104;27;45756;-71
2022/03/13 22:24:16;;;;;;;;;8.00;8.00;;;;;9.42;68.76;101238.44;5095748;27;45706;-70
2022/03/13 22:26:43;;;;;;;;;8.00;8.00;;;;;9.60;68.97;101265.69;5112115;27;45535;-69
2022/03/13 22:29:09;;;;;;;;;10.25;8.00;;;;;9.46;69.10;101253.28;5095276;27;45382;-70
2022/03/13 22:31:34;;;;;;;;;10.25;7.25;;;;;9.58;68.95;101283.09;5094696;27;45417;-70
2022/03/13 22:34:02;;;;;;;;;10.75;8.25;;;;;9.56;69.10;101280.44;5095190;27;45393;-70
2022/03/13 22:36:28;;;;;;;;;13.00;9.75;;;;;9.52;69.05;101292.63;5098256;27;45428;-69
2022/03/13 22:38:53;;;;;;;;;9.75;9.00;;;;;9.49;69.21;101297.81;5095163;27;45776;-71
2022/03/13 22:41:19;;;;;;;;;10.75;7.25;;;;;9.39;69.42;101297.63;5099693;27;45518;-68
2022/03/13 22:43:45;;;;;;;;;8.75;7.75;;;;;9.37;69.46;101297.59;5095901;27;45290;-70
2022/03/13 22:46:10;;;;;;;;;7.00;7.00;;;;;9.36;69.43;101311.53;5096287;27;45544;-70
2022/03/13 22:48:36;;;;;;;;;9.50;9.50;;;;;9.40;69.83;101320.31;5095264;27;45350;-69
2022/03/13 22:51:02;;;;;;;;;9.75;8.00;;;;;9.37;70.00;101297.59;5094273;27;46202;-69
2022/03/13 22:53:34;;;;;;;;;8.50;6.50;;;;;9.37;69.66;101323.72;5095366;27;45365;-69
2022/03/13 22:56:00;;;;;;;;;10.25;7.75;;;;;9.36;69.88;101326.34;5094344;27;45475;-68
2022/03/13 22:58:31;;;;;;;;;9.75;9.75;;;;;9.37;69.79;101330.69;5095172;27;45425;-69
2022/03/13 23:01:00;;;;;;;;;11.50;8.50;;;;;9.27;69.80;101317.47;5094933;27;45388;-66
2022/03/13 23:03:26;;;;;;;;;11.00;10.00;;;;;9.32;69.48;101320.16;5095486;27;45419;-68
2022/03/13 23:05:52;;;;;;;;;9.50;9.50;;;;;9.29;69.91;101330.59;5095761;27;45579;-70
2022/03/13 23:08:18;;;;;;;;;8.50;8.00;;;;;9.24;69.77;101351.41;5095816;27;45761;-69
2022/03/13 23:10:44;;;;;;;;;12.00;9.00;;;;;9.22;69.85;101344.41;5095274;27;45517;-68
2022/03/13 23:13:15;;;;;;;;;10.75;8.50;;;;;9.20;69.46;101353.94;5096997;27;45357;-68
2022/03/13 23:15:45;;;;;;;;;12.25;9.00;;;;;9.21;69.93;101348.75;5096667;27;45407;-70
2022/03/13 23:18:25;;;;;;;;;11.25;8.25;;;;;9.12;69.89;101346.84;5095965;27;46182;-68
2022/03/13 23:20:53;;;;;;;;;8.75;8.50;;;;;9.20;69.58;101367.88;5092427;27;45470;-67
2022/03/13 23:23:29;;;;;;;;;10.00;7.00;;;;;9.05;70.15;101351.94;5080943;27;45916;-69
2022/03/13 23:25:59;;;;;;;;;6.25;6.25;;;;;8.96;70.12;101336.97;5112347;27;45492;-68
2022/03/13 23:28:27;;;;;;;;;11.00;7.00;;;;;9.06;69.60;101354.59;5110444;27;45637;-69
2022/03/13 23:30:52;;;;;;;;;8.25;7.00;;;;;9.15;69.56;101385.22;5093351;27;45470;-68
2022/03/13 23:33:19;;;;;;;;;8.50;7.50;;;;;9.14;69.60;101399.16;5095793;27;45301;-69
2022/03/13 23:35:47;;;;;;;;;7.00;7.00;;;;;9.03;69.92;101390.22;5095903;27;46049;-68
2022/03/13 23:38:14;;;;;;;;;8.00;7.00;;;;;9.09;69.97;101413.88;5098669;27;46331;-69
2022/03/13 23:40:42;;;;;;;;;6.50;6.50;;;;;9.06;69.87;101411.19;5097615;27;45465;-69
2022/03/13 23:43:15;;;;;;;;;8.25;6.50;;;;;9.13;69.51;101423.50;5095250;27;45515;-68
2022/03/13 23:45:44;;;;;;;;;6.50;6.50;;;;;9.16;69.49;101431.44;5098273;27;45428;-68
2022/03/13 23:48:16;;;;;;;;;7.00;7.00;;;;;9.15;69.35;101418.31;5100479;27;45329;-69
2022/03/13 23:50:42;;;;;;;;;5.00;5.00;;;;;9.10;69.49;101421.72;5095247;27;45497;-68
2022/03/13 23:53:08;;;;;;;;;7.00;5.50;;;;;9.26;69.05;101437.72;5088346;27;45419;-70
2022/03/13 23:55:33;;;;;;;;;7.25;5.75;;;;;9.26;68.84;101442.94;5077692;27;45366;-70
2022/03/13 23:58:05;;;;;;;;;6.75;6.00;;;;;9.23;68.63;101435.94;5074290;27;46252;-71
